Harmon, Guam
Current Conditions -  °F | °C
As of 7:54 AM on Wednesday 22 Oct 2014 (Local Time) from PGUM Reporting Station
Few Clouds Few Clouds  
Wind Chill: 83°   Ceiling: Unl
Heat Index: 89°   Visibility: 10mi
Dew Point: 74°   Wind: 5mph
Humidity: 74%   Direction: 90°E
Pressure: 29.84"   Gusts: NA
Location:  13.462°N, 144.794°E
Report Text: PGUM 212154Z 09004KT 10SM FEW020 28/23 A2984 RMK AO2 SLP097 T02830233
Loading
Personal Weather Stations






























Interactive Weather Map
Tropical Storm Tracking
New forecast layout! Learn more

10-Day Weather Forecast

Advertisements
Track Severe Weather on mobile